Pagrindinis puslapis
METAR-TAF:

METAR-TAF

Oro uostai :

Isfahanas, Iranas

platuma: 32-28N, ilguma: 051-43E, Aukštis: 1590 m

Dabartinis oras

Ataskaita buvo paskelbta 12 minutes, ne 19:00 UTC
Vėjas 10 kt iš Pietų/Pietryčių
Temperatūra 11°C
Drėgmė 35%
Slėgis 1027 hPa
Matomumas 10 km arba daugiau
nėra debesų žemiau 1500 m ir nėra kamuolinių lietaus debesų

METAR: OIFM 221900Z 16010KT CAVOK 11/M04 Q1027 A3034

Laikas: 22:42 (19:12 UTC)

Prognozė

Ataskaita buvo paskelbta 1 valandą ir 42 minutes, ne 17:30 UTC
Prognozė galioja nuo 22 metu 18 UTC su 23 metu 24 UTC
Vėjas 8 kt iš Pietų/Pietvakarių
Matomumas: 7000 m
Mažai debesys ne aukštis 4000 ft
Laikinai
nuo 23 metu 02 UTC su 23 metu 06 UTC
Matomumas: 5000 m
migla

TAF: OIFM 221730Z 2218/2324 20008KT 7000 FEW040 TEMPO 2302/2306 5000 HZ

Orai ataskaitas ir orų prognozės (METAR, TAF).

turimą stotys yra geltonos ir raudonos taškus žemėlapyje.

Perkelti pele per norėdami pamatyti stoties vardą.

Tada spustelėkite, norėdami matyti oro stebėjimo ir prognozės.

Norėdami pakeisti žemėlapį: spustelėkite ant žalios mygtukų su juodo kryžiaus žemyn,; žalią mygtuką su brūkšneliu, jei norite nutolinti; arba žalių rodyklių gretimoms žemėlapius.


METAR-TAF: